Peachtree Corners, Georgia
Current Conditions -  °F | °C
As of 12:53 AM on Thursday 18 Dec 2014 (Local Time) from KPDK Reporting Station
Clear Clear  
Wind Chill: 33°   Ceiling: Unl
Heat Index: 38°   Visibility: 10mi
Dew Point: 32°   Wind: 6mph
Humidity: 79%   Direction: 290°WNW
Pressure: 30.12"   Gusts: NA
Location:  33.9742°N, 84.235°W
Report Text: KPDK 180553Z AUTO 29005KT 10SM CLR 03/00 A3012 RMK AO2 SLP210 T00330000 10056 20028 56011
Loading
Personal Weather Stations






























Interactive Weather Map New forecast layout! Learn more

10-Day Weather Forecast

Advertisements
Track Severe Weather on mobile